sensor_id;sensor_type;location;lat;lon;timestamp;pressure;altitude;pressure_sealevel;temperature;humidity
75998;BME280;64685;48.762;44.822;2023-02-01T00:03:18;101057.25;;;-2.23;59.35
75998;BME280;64685;48.762;44.822;2023-02-01T00:08:21;101056.00;;;-2.56;60.12
75998;BME280;64685;48.762;44.822;2023-02-01T00:13:23;101055.19;;;-2.57;59.82
75998;BME280;64685;48.762;44.822;2023-02-01T00:18:25;101049.72;;;-2.57;60.65
75998;BME280;64685;48.762;44.822;2023-02-01T00:23:28;101047.22;;;-2.58;60.58
75998;BME280;64685;48.762;44.822;2023-02-01T00:28:30;101047.09;;;-2.81;60.62
75998;BME280;64685;48.762;44.822;2023-02-01T00:33:33;101036.31;;;-2.76;60.43
75998;BME280;64685;48.762;44.822;2023-02-01T00:38:37;101031.81;;;-2.89;61.03
75998;BME280;64685;48.762;44.822;2023-02-01T00:43:40;101032.66;;;-2.88;61.43
75998;BME280;64685;48.762;44.822;2023-02-01T00:48:44;101033.41;;;-2.81;61.20
75998;BME280;64685;48.762;44.822;2023-02-01T00:53:47;101023.56;;;-2.82;60.62
75998;BME280;64685;48.762;44.822;2023-02-01T00:58:50;101026.84;;;-2.92;61.28
75998;BME280;64685;48.762;44.822;2023-02-01T01:03:58;101022.41;;;-2.93;61.57
75998;BME280;64685;48.762;44.822;2023-02-01T01:09:04;101030.38;;;-3.09;61.57
75998;BME280;64685;48.762;44.822;2023-02-01T01:14:08;101026.25;;;-3.18;61.75
75998;BME280;64685;48.762;44.822;2023-02-01T01:19:10;101021.56;;;-3.29;62.51
75998;BME280;64685;48.762;44.822;2023-02-01T01:24:14;101031.13;;;-3.20;61.74
75998;BME280;64685;48.762;44.822;2023-02-01T01:29:16;101028.19;;;-3.01;61.67
75998;BME280;64685;48.762;44.822;2023-02-01T01:34:19;101032.03;;;-2.90;61.60
75998;BME280;64685;48.762;44.822;2023-02-01T01:39:21;101024.63;;;-2.83;61.91
75998;BME280;64685;48.762;44.822;2023-02-01T01:50:09;101016.44;;;-2.83;61.17
75998;BME280;64685;48.762;44.822;2023-02-01T01:55:14;101015.81;;;-2.85;61.61
75998;BME280;64685;48.762;44.822;2023-02-01T02:00:20;101016.41;;;-2.65;61.66
75998;BME280;64685;48.762;44.822;2023-02-01T02:05:26;101021.47;;;-2.51;61.11
75998;BME280;64685;48.762;44.822;2023-02-01T02:10:31;101019.63;;;-2.39;60.98
75998;BME280;64685;48.762;44.822;2023-02-01T02:16:17;101007.94;;;-2.16;60.41
75998;BME280;64685;48.762;44.822;2023-02-01T02:26:49;101012.03;;;-1.84;60.56
75998;BME280;64685;48.762;44.822;2023-02-01T02:54:13;101015.88;;;-1.16;59.41
75998;BME280;64685;48.762;44.822;2023-02-01T02:59:38;101012.81;;;-1.08;59.43
75998;BME280;64685;48.762;44.822;2023-02-01T03:05:02;101017.31;;;-1.02;59.00
75998;BME280;64685;48.762;44.822;2023-02-01T03:10:09;101014.53;;;-0.91;58.84
75998;BME280;64685;48.762;44.822;2023-02-01T03:15:16;101025.50;;;-0.79;59.05
75998;BME280;64685;48.762;44.822;2023-02-01T03:20:21;101022.59;;;-0.61;58.83
75998;BME280;64685;48.762;44.822;2023-02-01T03:25:30;101027.00;;;-0.60;58.35
75998;BME280;64685;48.762;44.822;2023-02-01T03:30:38;101035.03;;;-0.43;58.48
75998;BME280;64685;48.762;44.822;2023-02-01T03:36:05;101041.34;;;-0.30;58.22
75998;BME280;64685;48.762;44.822;2023-02-01T03:41:28;101033.72;;;-0.40;58.13
75998;BME280;64685;48.762;44.822;2023-02-01T03:46:45;101041.66;;;-0.55;58.67
75998;BME280;64685;48.762;44.822;2023-02-01T03:51:50;101039.50;;;-0.53;58.58
75998;BME280;64685;48.762;44.822;2023-02-01T03:56:55;101045.81;;;-0.52;58.42
75998;BME280;64685;48.762;44.822;2023-02-01T04:01:59;101052.69;;;-0.38;58.38
75998;BME280;64685;48.762;44.822;2023-02-01T04:07:03;101053.88;;;-0.34;58.23
75998;BME280;64685;48.762;44.822;2023-02-01T04:12:06;101060.56;;;-0.42;58.34
75998;BME280;64685;48.762;44.822;2023-02-01T04:17:08;101053.19;;;-0.41;58.64
75998;BME280;64685;48.762;44.822;2023-02-01T04:22:11;101052.06;;;-0.68;58.59
75998;BME280;64685;48.762;44.822;2023-02-01T04:27:14;101056.47;;;-0.79;58.87
75998;BME280;64685;48.762;44.822;2023-02-01T04:32:18;101066.66;;;-1.02;59.07
75998;BME280;64685;48.762;44.822;2023-02-01T04:37:22;101069.97;;;-1.00;59.43
75998;BME280;64685;48.762;44.822;2023-02-01T04:42:24;101073.16;;;-1.49;59.42
75998;BME280;64685;48.762;44.822;2023-02-01T04:47:27;101070.31;;;-1.95;60.15
75998;BME280;64685;48.762;44.822;2023-02-01T04:52:29;101072.66;;;-2.10;61.21
75998;BME280;64685;48.762;44.822;2023-02-01T04:57:32;101082.38;;;-2.14;61.42
75998;BME280;64685;48.762;44.822;2023-02-01T05:02:35;101085.69;;;-2.24;60.83
75998;BME280;64685;48.762;44.822;2023-02-01T05:07:37;101086.34;;;-2.28;61.69
75998;BME280;64685;48.762;44.822;2023-02-01T05:12:39;101090.47;;;-2.37;61.44
75998;BME280;64685;48.762;44.822;2023-02-01T05:18:01;101089.59;;;-2.49;61.98
75998;BME280;64685;48.762;44.822;2023-02-01T05:23:03;101098.56;;;-2.60;61.75
75998;BME280;64685;48.762;44.822;2023-02-01T05:28:06;101103.88;;;-2.65;62.01
75998;BME280;64685;48.762;44.822;2023-02-01T05:33:09;101106.13;;;-2.26;62.68
75998;BME280;64685;48.762;44.822;2023-02-01T05:38:11;101108.38;;;-2.23;62.37
75998;BME280;64685;48.762;44.822;2023-02-01T05:43:14;101117.69;;;-1.95;62.36
75998;BME280;64685;48.762;44.822;2023-02-01T05:48:16;101117.75;;;-1.08;61.24
75998;BME280;64685;48.762;44.822;2023-02-01T05:53:19;101140.63;;;-0.79;60.79
75998;BME280;64685;48.762;44.822;2023-02-01T05:58:21;101139.53;;;-0.55;60.34
75998;BME280;64685;48.762;44.822;2023-02-01T06:03:24;101142.53;;;-0.06;59.46
75998;BME280;64685;48.762;44.822;2023-02-01T06:08:27;101148.66;;;-0.16;59.31
75998;BME280;64685;48.762;44.822;2023-02-01T06:13:30;101151.63;;;0.22;58.45
75998;BME280;64685;48.762;44.822;2023-02-01T06:18:35;101159.31;;;0.81;57.49
75998;BME280;64685;48.762;44.822;2023-02-01T06:23:37;101161.75;;;1.11;57.19
75998;BME280;64685;48.762;44.822;2023-02-01T06:28:40;101156.94;;;1.56;56.47
75998;BME280;64685;48.762;44.822;2023-02-01T06:33:43;101150.34;;;1.57;56.56
75998;BME280;64685;48.762;44.822;2023-02-01T06:38:45;101150.41;;;1.78;55.73
75998;BME280;64685;48.762;44.822;2023-02-01T06:43:48;101145.28;;;2.35;55.45
75998;BME280;64685;48.762;44.822;2023-02-01T06:48:50;101153.56;;;2.61;54.77
75998;BME280;64685;48.762;44.822;2023-02-01T06:53:53;101151.88;;;2.82;53.55
75998;BME280;64685;48.762;44.822;2023-02-01T06:58:56;101145.72;;;3.06;52.58
75998;BME280;64685;48.762;44.822;2023-02-01T07:03:58;101150.06;;;3.75;51.38
75998;BME280;64685;48.762;44.822;2023-02-01T07:09:01;101148.63;;;4.24;50.45
75998;BME280;64685;48.762;44.822;2023-02-01T07:14:03;101146.44;;;4.26;50.10
75998;BME280;64685;48.762;44.822;2023-02-01T07:19:06;101153.25;;;5.05;49.13
75998;BME280;64685;48.762;44.822;2023-02-01T07:24:09;101165.22;;;4.29;48.97
75998;BME280;64685;48.762;44.822;2023-02-01T07:29:12;101162.16;;;3.64;49.57
75998;BME280;64685;48.762;44.822;2023-02-01T07:34:14;101156.53;;;3.49;49.64
75998;BME280;64685;48.762;44.822;2023-02-01T07:39:17;101161.25;;;2.86;49.96
75998;BME280;64685;48.762;44.822;2023-02-01T07:44:20;101159.31;;;2.55;50.56
75998;BME280;64685;48.762;44.822;2023-02-01T07:49:25;101168.13;;;2.30;51.26
75998;BME280;64685;48.762;44.822;2023-02-01T07:54:27;101157.34;;;2.50;51.45
75998;BME280;64685;48.762;44.822;2023-02-01T07:59:30;101158.47;;;2.54;50.95
75998;BME280;64685;48.762;44.822;2023-02-01T08:04:32;101149.69;;;2.36;52.04
75998;BME280;64685;48.762;44.822;2023-02-01T08:09:35;101149.94;;;2.08;52.30
75998;BME280;64685;48.762;44.822;2023-02-01T08:14:37;101148.19;;;2.02;53.08
75998;BME280;64685;48.762;44.822;2023-02-01T08:19:40;101136.22;;;2.13;52.33
75998;BME280;64685;48.762;44.822;2023-02-01T08:24:43;101136.66;;;2.53;52.50
75998;BME280;64685;48.762;44.822;2023-02-01T08:29:46;101127.41;;;3.73;51.16
75998;BME280;64685;48.762;44.822;2023-02-01T08:34:48;101140.34;;;4.24;50.51
75998;BME280;64685;48.762;44.822;2023-02-01T08:39:51;101138.34;;;4.10;50.30
75998;BME280;64685;48.762;44.822;2023-02-01T08:44:53;101136.63;;;4.75;49.79
75998;BME280;64685;48.762;44.822;2023-02-01T08:49:56;101124.69;;;5.50;47.92
75998;BME280;64685;48.762;44.822;2023-02-01T08:54:59;101122.69;;;6.49;46.57
75998;BME280;64685;48.762;44.822;2023-02-01T09:00:03;101110.97;;;6.57;46.73
75998;BME280;64685;48.762;44.822;2023-02-01T09:05:07;101103.16;;;7.31;46.25
75998;BME280;64685;48.762;44.822;2023-02-01T09:10:10;101105.53;;;7.94;43.86
75998;BME280;64685;48.762;44.822;2023-02-01T09:15:13;101102.13;;;9.00;42.45
75998;BME280;64685;48.762;44.822;2023-02-01T09:20:16;101096.78;;;8.06;42.10
75998;BME280;64685;48.762;44.822;2023-02-01T09:25:18;101097.47;;;5.82;45.05
75998;BME280;64685;48.762;44.822;2023-02-01T09:30:21;101087.38;;;4.92;45.79
75998;BME280;64685;48.762;44.822;2023-02-01T09:35:24;101080.69;;;4.48;46.61
75998;BME280;64685;48.762;44.822;2023-02-01T09:40:27;101079.06;;;4.67;46.76
75998;BME280;64685;48.762;44.822;2023-02-01T09:51:05;101072.88;;;5.55;46.58
75998;BME280;64685;48.762;44.822;2023-02-01T09:56:15;101058.09;;;6.38;46.25
75998;BME280;64685;48.762;44.822;2023-02-01T10:01:25;101054.19;;;7.11;45.24
75998;BME280;64685;48.762;44.822;2023-02-01T10:28:16;101049.31;;;8.95;42.02
75998;BME280;64685;48.762;44.822;2023-02-01T10:33:34;101035.28;;;9.59;40.89
75998;BME280;64685;48.762;44.822;2023-02-01T10:38:37;101041.84;;;8.90;41.00
75998;BME280;64685;48.762;44.822;2023-02-01T10:43:40;101039.09;;;7.93;41.47
75998;BME280;64685;48.762;44.822;2023-02-01T10:48:43;101024.50;;;8.43;41.42
75998;BME280;64685;48.762;44.822;2023-02-01T10:54:17;101036.22;;;8.77;40.81
75998;BME280;64685;48.762;44.822;2023-02-01T10:59:28;101018.25;;;9.01;40.51
75998;BME280;64685;48.762;44.822;2023-02-01T11:04:34;101026.47;;;8.61;40.37
75998;BME280;64685;48.762;44.822;2023-02-01T11:09:40;101032.19;;;8.69;39.95
75998;BME280;64685;48.762;44.822;2023-02-01T11:14:43;101032.16;;;7.90;40.53
75998;BME280;64685;48.762;44.822;2023-02-01T11:20:13;101029.66;;;7.94;40.21
75998;BME280;64685;48.762;44.822;2023-02-01T11:25:17;101043.97;;;7.35;41.12
75998;BME280;64685;48.762;44.822;2023-02-01T11:30:43;101040.09;;;7.31;42.18
75998;BME280;64685;48.762;44.822;2023-02-01T11:35:47;101042.22;;;7.39;41.16
75998;BME280;64685;48.762;44.822;2023-02-01T11:40:51;101039.16;;;7.41;41.35
75998;BME280;64685;48.762;44.822;2023-02-01T11:46:03;101028.03;;;7.17;41.39
75998;BME280;64685;48.762;44.822;2023-02-01T12:02:17;101043.72;;;5.73;43.68
75998;BME280;64685;48.762;44.822;2023-02-01T12:12:45;101037.72;;;6.14;44.48
75998;BME280;64685;48.762;44.822;2023-02-01T12:23:55;101027.97;;;5.58;45.56
75998;BME280;64685;48.762;44.822;2023-02-01T12:39:32;101024.00;;;4.41;47.67
75998;BME280;64685;48.762;44.822;2023-02-01T12:44:56;101019.53;;;4.15;48.75
75998;BME280;64685;48.762;44.822;2023-02-01T12:55:36;101024.72;;;3.81;50.46
75998;BME280;64685;48.762;44.822;2023-02-01T13:00:47;101025.66;;;3.50;52.01
75998;BME280;64685;48.762;44.822;2023-02-01T13:11:16;101023.03;;;3.19;54.02
75998;BME280;64685;48.762;44.822;2023-02-01T13:16:25;101020.72;;;3.01;54.40
75998;BME280;64685;48.762;44.822;2023-02-01T13:21:34;101033.28;;;2.82;55.98
75998;BME280;64685;48.762;44.822;2023-02-01T13:26:40;101030.94;;;2.69;56.01
75998;BME280;64685;48.762;44.822;2023-02-01T13:32:33;101039.81;;;2.71;56.73
75998;BME280;64685;48.762;44.822;2023-02-01T13:38:24;101036.13;;;2.60;56.33
75998;BME280;64685;48.762;44.822;2023-02-01T13:43:34;101053.34;;;2.46;57.19
75998;BME280;64685;48.762;44.822;2023-02-01T13:48:50;101059.63;;;2.36;57.08
75998;BME280;64685;48.762;44.822;2023-02-01T13:53:53;101051.19;;;2.21;57.55
75998;BME280;64685;48.762;44.822;2023-02-01T13:58:56;101062.38;;;2.10;57.25
75998;BME280;64685;48.762;44.822;2023-02-01T14:04:04;101050.63;;;1.93;57.31
75998;BME280;64685;48.762;44.822;2023-02-01T14:19:22;101068.38;;;1.59;57.73
75998;BME280;64685;48.762;44.822;2023-02-01T14:24:36;101061.41;;;1.51;57.52
75998;BME280;64685;48.762;44.822;2023-02-01T14:29:41;101073.66;;;1.22;58.22
75998;BME280;64685;48.762;44.822;2023-02-01T14:55:38;101101.34;;;0.83;57.77
75998;BME280;64685;48.762;44.822;2023-02-01T15:00:46;101109.09;;;0.69;58.41
75998;BME280;64685;48.762;44.822;2023-02-01T15:05:57;101119.69;;;0.77;58.02
75998;BME280;64685;48.762;44.822;2023-02-01T15:11:02;101111.03;;;0.69;57.64
75998;BME280;64685;48.762;44.822;2023-02-01T15:16:14;101127.31;;;0.75;57.31
75998;BME280;64685;48.762;44.822;2023-02-01T15:21:23;101131.81;;;0.81;57.08
75998;BME280;64685;48.762;44.822;2023-02-01T15:26:33;101120.59;;;0.66;56.54
75998;BME280;64685;48.762;44.822;2023-02-01T15:31:39;101122.69;;;0.59;56.76
75998;BME280;64685;48.762;44.822;2023-02-01T15:36:44;101112.59;;;0.48;56.47
75998;BME280;64685;48.762;44.822;2023-02-01T15:42:17;101102.66;;;0.47;56.42
75998;BME280;64685;48.762;44.822;2023-02-01T15:47:27;101092.69;;;0.58;55.80
75998;BME280;64685;48.762;44.822;2023-02-01T15:52:37;101086.16;;;0.31;56.38
75998;BME280;64685;48.762;44.822;2023-02-01T15:57:40;101078.09;;;-0.04;56.97
75998;BME280;64685;48.762;44.822;2023-02-01T16:08:32;101103.94;;;-0.28;57.40
75998;BME280;64685;48.762;44.822;2023-02-01T16:13:36;101112.97;;;-0.16;56.99
75998;BME280;64685;48.762;44.822;2023-02-01T16:18:40;101124.63;;;-0.09;56.95
75998;BME280;64685;48.762;44.822;2023-02-01T16:23:48;101130.13;;;-0.09;56.94
75998;BME280;64685;48.762;44.822;2023-02-01T16:28:51;101131.97;;;-0.26;57.15
75998;BME280;64685;48.762;44.822;2023-02-01T16:33:53;101143.72;;;-0.02;57.26
75998;BME280;64685;48.762;44.822;2023-02-01T16:38:56;101144.00;;;-0.15;56.58
75998;BME280;64685;48.762;44.822;2023-02-01T16:43:59;101142.69;;;-0.13;56.99
75998;BME280;64685;48.762;44.822;2023-02-01T16:49:01;101138.00;;;-0.01;57.07
75998;BME280;64685;48.762;44.822;2023-02-01T16:54:04;101121.41;;;-0.06;56.88
75998;BME280;64685;48.762;44.822;2023-02-01T16:59:07;101142.00;;;-0.19;57.01
75998;BME280;64685;48.762;44.822;2023-02-01T17:04:10;101137.63;;;-0.43;57.42
75998;BME280;64685;48.762;44.822;2023-02-01T17:09:13;101148.34;;;-0.53;57.81
75998;BME280;64685;48.762;44.822;2023-02-01T17:14:17;101153.50;;;-0.45;57.70
75998;BME280;64685;48.762;44.822;2023-02-01T17:19:22;101155.72;;;-0.31;57.48
75998;BME280;64685;48.762;44.822;2023-02-01T17:24:30;101158.00;;;-0.28;57.16
75998;BME280;64685;48.762;44.822;2023-02-01T17:29:48;101167.94;;;-0.50;57.82
75998;BME280;64685;48.762;44.822;2023-02-01T17:34:52;101152.19;;;-0.77;57.80
75998;BME280;64685;48.762;44.822;2023-02-01T17:39:56;101165.22;;;-0.73;57.97
75998;BME280;64685;48.762;44.822;2023-02-01T17:45:23;101156.00;;;-0.55;57.86
75998;BME280;64685;48.762;44.822;2023-02-01T17:50:31;101148.50;;;-0.71;58.01
75998;BME280;64685;48.762;44.822;2023-02-01T17:55:36;101140.53;;;-0.73;58.09
75998;BME280;64685;48.762;44.822;2023-02-01T18:00:40;101141.56;;;-0.74;58.45
75998;BME280;64685;48.762;44.822;2023-02-01T18:05:43;101131.81;;;-0.93;58.67
75998;BME280;64685;48.762;44.822;2023-02-01T18:10:56;101133.22;;;-0.79;58.73
75998;BME280;64685;48.762;44.822;2023-02-01T18:16:02;101126.06;;;-0.57;58.56
75998;BME280;64685;48.762;44.822;2023-02-01T18:21:08;101118.97;;;-0.92;58.93
75998;BME280;64685;48.762;44.822;2023-02-01T18:26:13;101133.13;;;-0.72;58.53
75998;BME280;64685;48.762;44.822;2023-02-01T18:36:23;101137.22;;;-0.24;57.51
75998;BME280;64685;48.762;44.822;2023-02-01T18:41:26;101144.94;;;-0.10;57.76
75998;BME280;64685;48.762;44.822;2023-02-01T18:46:32;101140.44;;;0.12;57.44
75998;BME280;64685;48.762;44.822;2023-02-01T18:51:34;101135.53;;;-0.13;57.56
75998;BME280;64685;48.762;44.822;2023-02-01T18:56:37;101139.56;;;-0.05;57.61
75998;BME280;64685;48.762;44.822;2023-02-01T19:01:39;101128.53;;;-0.32;57.93
75998;BME280;64685;48.762;44.822;2023-02-01T19:06:48;101129.63;;;-0.33;58.08
75998;BME280;64685;48.762;44.822;2023-02-01T19:11:50;101131.97;;;-0.26;58.05
75998;BME280;64685;48.762;44.822;2023-02-01T19:16:53;101143.09;;;-0.32;57.84
75998;BME280;64685;48.762;44.822;2023-02-01T19:21:58;101128.00;;;-0.18;58.06
75998;BME280;64685;48.762;44.822;2023-02-01T19:27:00;101130.34;;;-0.38;58.25
75998;BME280;64685;48.762;44.822;2023-02-01T19:32:04;101148.88;;;-0.17;57.93
75998;BME280;64685;48.762;44.822;2023-02-01T19:37:07;101139.06;;;-0.02;57.82
75998;BME280;64685;48.762;44.822;2023-02-01T19:42:09;101142.91;;;-0.03;57.63
75998;BME280;64685;48.762;44.822;2023-02-01T19:47:12;101147.03;;;0.11;57.71
75998;BME280;64685;48.762;44.822;2023-02-01T19:52:14;101146.34;;;0.04;57.63
75998;BME280;64685;48.762;44.822;2023-02-01T19:57:17;101157.84;;;-0.10;57.53
75998;BME280;64685;48.762;44.822;2023-02-01T20:02:20;101166.09;;;-0.22;58.16
75998;BME280;64685;48.762;44.822;2023-02-01T20:07:22;101171.78;;;-0.12;58.04
75998;BME280;64685;48.762;44.822;2023-02-01T20:12:25;101165.50;;;-0.35;58.18
75998;BME280;64685;48.762;44.822;2023-02-01T20:17:27;101163.63;;;-0.57;58.68
75998;BME280;64685;48.762;44.822;2023-02-01T20:22:30;101151.34;;;-0.66;59.02
75998;BME280;64685;48.762;44.822;2023-02-01T20:27:33;101151.84;;;-0.69;58.93
75998;BME280;64685;48.762;44.822;2023-02-01T20:32:35;101151.72;;;-0.74;59.50
75998;BME280;64685;48.762;44.822;2023-02-01T20:37:37;101160.06;;;-0.69;59.23
75998;BME280;64685;48.762;44.822;2023-02-01T20:42:40;101161.25;;;-0.77;58.97
75998;BME280;64685;48.762;44.822;2023-02-01T20:47:42;101162.91;;;-0.87;59.46
75998;BME280;64685;48.762;44.822;2023-02-01T20:52:45;101168.16;;;-0.86;59.17
75998;BME280;64685;48.762;44.822;2023-02-01T20:57:48;101165.31;;;-0.79;59.17
75998;BME280;64685;48.762;44.822;2023-02-01T21:02:50;101164.34;;;-0.96;59.92
75998;BME280;64685;48.762;44.822;2023-02-01T21:07:53;101161.97;;;-0.93;59.54
75998;BME280;64685;48.762;44.822;2023-02-01T21:12:55;101167.94;;;-0.84;59.59
75998;BME280;64685;48.762;44.822;2023-02-01T21:18:06;101164.97;;;-0.83;59.47
75998;BME280;64685;48.762;44.822;2023-02-01T21:23:10;101170.44;;;-0.71;59.54
75998;BME280;64685;48.762;44.822;2023-02-01T21:28:13;101172.00;;;-0.75;59.75
75998;BME280;64685;48.762;44.822;2023-02-01T21:33:16;101182.47;;;-0.72;59.11
75998;BME280;64685;48.762;44.822;2023-02-01T21:38:18;101179.25;;;-0.81;59.78
75998;BME280;64685;48.762;44.822;2023-02-01T21:43:21;101176.88;;;-0.77;59.77
75998;BME280;64685;48.762;44.822;2023-02-01T21:48:24;101182.59;;;-0.33;59.46
75998;BME280;64685;48.762;44.822;2023-02-01T21:53:26;101185.59;;;-0.57;59.48
75998;BME280;64685;48.762;44.822;2023-02-01T21:58:29;101187.25;;;-0.79;59.64
75998;BME280;64685;48.762;44.822;2023-02-01T22:03:31;101182.22;;;-0.82;59.89
75998;BME280;64685;48.762;44.822;2023-02-01T22:08:36;101178.44;;;-0.81;60.38
75998;BME280;64685;48.762;44.822;2023-02-01T22:13:39;101177.94;;;-0.55;59.85
75998;BME280;64685;48.762;44.822;2023-02-01T22:18:42;101190.56;;;-0.32;59.13
75998;BME280;64685;48.762;44.822;2023-02-01T22:23:52;101185.00;;;-0.09;58.86
75998;BME280;64685;48.762;44.822;2023-02-01T22:28:55;101191.84;;;0.28;58.23
75998;BME280;64685;48.762;44.822;2023-02-01T22:33:58;101188.19;;;0.23;58.34
75998;BME280;64685;48.762;44.822;2023-02-01T22:39:01;101193.00;;;0.04;58.43
75998;BME280;64685;48.762;44.822;2023-02-01T22:44:03;101188.66;;;-0.19;58.79
75998;BME280;64685;48.762;44.822;2023-02-01T22:49:06;101195.69;;;-0.35;58.75
75998;BME280;64685;48.762;44.822;2023-02-01T22:54:16;101199.41;;;-0.52;58.89
75998;BME280;64685;48.762;44.822;2023-02-01T22:59:19;101192.97;;;-0.69;59.30
75998;BME280;64685;48.762;44.822;2023-02-01T23:04:21;101190.00;;;-0.79;59.74
75998;BME280;64685;48.762;44.822;2023-02-01T23:09:24;101193.78;;;-0.69;59.82
75998;BME280;64685;48.762;44.822;2023-02-01T23:14:27;101191.41;;;-0.43;59.30
75998;BME280;64685;48.762;44.822;2023-02-01T23:19:30;101193.78;;;-0.46;59.39
75998;BME280;64685;48.762;44.822;2023-02-01T23:24:32;101187.25;;;-0.56;59.34
75998;BME280;64685;48.762;44.822;2023-02-01T23:29:35;101185.94;;;-0.77;59.69
75998;BME280;64685;48.762;44.822;2023-02-01T23:34:37;101176.41;;;-0.97;60.18
75998;BME280;64685;48.762;44.822;2023-02-01T23:39:42;101174.22;;;-1.07;60.45
75998;BME280;64685;48.762;44.822;2023-02-01T23:44:44;101165.66;;;-0.99;60.68
75998;BME280;64685;48.762;44.822;2023-02-01T23:49:47;101176.53;;;-0.92;60.28
75998;BME280;64685;48.762;44.822;2023-02-01T23:54:49;101177.44;;;-0.98;60.60
75998;BME280;64685;48.762;44.822;2023-02-01T23:59:52;101183.44;;;-0.90;60.24
